Time;durP1;ratioP1;P1;durP2;ratioP2;P2;SDS_P1;SDS_P2;PMS_P1;PMS_P2;Temp;Humidity;BMP_temperature;BMP_pressure;BME280_temperature;BME280_humidity;BME280_pressure;Samples;Min_cycle;Max_cycle;Signal;HPM_P1;HPM_P2
2023/03/14 00:00:11;;;;;;;3.95;0.65;;;11.00;99.90;;;;;;5017920;28;20030;-87
2023/03/14 00:02:37;;;;;;;3.22;0.40;;;11.00;99.90;;;;;;5035514;28;20039;-85
2023/03/14 00:05:06;;;;;;;3.08;0.40;;;10.90;99.90;;;;;;5038995;28;20021;-86
2023/03/14 00:07:39;;;;;;;3.72;0.38;;;11.00;99.90;;;;;;5037763;28;20029;-87
2023/03/14 00:10:10;;;;;;;5.65;0.40;;;11.00;99.90;;;;;;5036654;28;20079;-84
2023/03/14 00:12:36;;;;;;;3.97;0.50;;;11.00;99.90;;;;;;5012359;28;20040;-85
2023/03/14 00:15:03;;;;;;;2.38;0.40;;;11.00;99.90;;;;;;5049506;28;20025;-86
2023/03/14 00:17:30;;;;;;;2.78;0.30;;;11.00;99.90;;;;;;5010524;28;20030;-85
2023/03/14 00:19:55;;;;;;;2.65;0.50;;;11.00;99.90;;;;;;5012492;28;20090;-85
2023/03/14 00:22:21;;;;;;;2.58;0.40;;;11.00;99.90;;;;;;5037300;28;21607;-85
2023/03/14 00:24:47;;;;;;;3.42;0.38;;;10.90;99.90;;;;;;5028147;28;20490;-87
2023/03/14 00:27:13;;;;;;;4.78;0.50;;;10.80;99.90;;;;;;5027497;28;20048;-88
2023/03/14 00:29:39;;;;;;;2.45;0.40;;;10.80;99.90;;;;;;5033524;28;20029;-89
2023/03/14 00:32:04;;;;;;;2.38;0.50;;;10.70;99.90;;;;;;5050051;28;20396;-85
2023/03/14 00:34:32;;;;;;;3.40;0.40;;;10.60;99.90;;;;;;5034596;28;20036;-86
2023/03/14 00:36:59;;;;;;;2.85;0.38;;;10.60;99.90;;;;;;5017487;28;20503;-85
2023/03/14 00:39:25;;;;;;;3.72;0.40;;;10.60;99.90;;;;;;5028823;28;20060;-86
2023/03/14 00:41:51;;;;;;;2.40;0.30;;;10.50;99.90;;;;;;5032730;28;20489;-84
2023/03/14 00:44:16;;;;;;;4.28;0.30;;;10.50;99.90;;;;;;5050601;28;20494;-85
2023/03/14 00:46:42;;;;;;;3.83;0.40;;;10.40;99.90;;;;;;5037289;28;20025;-87
2023/03/14 00:49:08;;;;;;;2.55;0.40;;;10.50;99.90;;;;;;5036646;28;20032;-87
2023/03/14 00:51:33;;;;;;;1.50;0.30;;;10.40;99.90;;;;;;5034841;28;20462;-86
2023/03/14 00:54:00;;;;;;;2.60;0.30;;;10.30;99.90;;;;;;5028753;28;20054;-86
2023/03/14 00:56:25;;;;;;;3.15;0.47;;;10.30;99.90;;;;;;5010079;28;20029;-87
2023/03/14 00:58:55;;;;;;;2.78;0.80;;;10.40;99.90;;;;;;5019292;28;20036;-87
2023/03/14 01:01:21;;;;;;;1.85;0.30;;;10.30;99.90;;;;;;5040152;28;20040;-86
2023/03/14 01:03:47;;;;;;;1.80;0.30;;;10.30;99.90;;;;;;5025965;28;20029;-85
2023/03/14 01:06:18;;;;;;;2.15;0.30;;;10.40;99.90;;;;;;5039051;28;20027;-84
2023/03/14 01:08:44;;;;;;;1.88;0.30;;;10.40;99.90;;;;;;5029596;28;20087;-86
2023/03/14 01:11:13;;;;;;;3.00;0.32;;;10.40;99.90;;;;;;5028822;28;20058;-86
2023/03/14 01:13:40;;;;;;;3.30;0.30;;;10.40;99.90;;;;;;5021609;28;20105;-83
2023/03/14 01:16:08;;;;;;;1.95;0.63;;;10.50;99.90;;;;;;5043495;28;20416;-87
2023/03/14 01:18:38;;;;;;;3.50;0.35;;;10.40;99.90;;;;;;5034328;28;20656;-87
2023/03/14 01:21:14;;;;;;;3.65;0.38;;;10.40;99.90;;;;;;5028687;28;20067;-83
2023/03/14 01:23:40;;;;;;;3.35;0.70;;;10.50;99.90;;;;;;5032407;28;20478;-87
2023/03/14 01:26:10;;;;;;;2.97;0.30;;;10.50;99.90;;;;;;5024557;28;20017;-84
2023/03/14 01:28:36;;;;;;;;;;;10.50;99.90;;;;;;5036153;28;20115;-83
2023/03/14 01:31:07;;;;;;;2.22;0.30;;;10.40;99.90;;;;;;5042211;28;19909;-85
2023/03/14 01:33:33;;;;;;;3.40;0.30;;;10.40;99.90;;;;;;5037387;28;20028;-85
2023/03/14 01:36:01;;;;;;;3.22;0.35;;;10.40;99.90;;;;;;5032446;28;20133;-85
2023/03/14 01:38:29;;;;;;;2.50;0.20;;;10.30;99.90;;;;;;5039329;28;20033;-87
2023/03/14 01:40:55;;;;;;;3.45;0.30;;;10.30;99.90;;;;;;5018224;28;20112;-85
2023/03/14 01:43:24;;;;;;;2.40;0.30;;;10.40;99.90;;;;;;5034834;28;20469;-87
2023/03/14 01:46:04;;;;;;;4.18;0.25;;;10.30;99.90;;;;;;5037512;28;20032;-84
2023/03/14 01:48:44;;;;;;;5.15;0.30;;;10.30;99.90;;;;;;5027109;28;20086;-85
2023/03/14 01:51:17;;;;;;;;;;;10.30;99.90;;;;;;5024404;28;20099;-87
2023/03/14 01:53:44;;;;;;;2.20;0.20;;;10.20;99.90;;;;;;5041509;28;19913;-85
2023/03/14 01:56:12;;;;;;;2.13;0.20;;;10.20;99.90;;;;;;5029799;28;20338;-85
2023/03/14 01:58:41;;;;;;;3.38;0.20;;;10.20;99.90;;;;;;5018956;28;20478;-88
2023/03/14 02:01:08;;;;;;;2.72;0.20;;;10.10;99.90;;;;;;5035864;28;20034;-85
2023/03/14 02:03:46;;;;;;;2.55;0.20;;;10.10;99.90;;;;;;5024794;28;20025;-85
2023/03/14 02:06:17;;;;;;;8.48;0.60;;;10.10;99.90;;;;;;5011623;28;20608;-87
2023/03/14 02:08:47;;;;;;;2.17;0.28;;;10.20;99.90;;;;;;5032534;28;20381;-87
2023/03/14 02:11:17;;;;;;;2.70;0.20;;;10.10;99.90;;;;;;5017247;28;20553;-86
2023/03/14 02:14:05;;;;;;;4.05;0.20;;;10.20;99.90;;;;;;5027806;28;20025;-85
2023/03/14 02:16:51;;;;;;;4.53;0.30;;;10.20;99.90;;;;;;5034471;28;20555;-85
2023/03/14 02:20:01;;;;;;;5.38;0.30;;;10.20;99.90;;;;;;5028864;28;20048;-86
2023/03/14 02:22:35;;;;;;;3.65;0.25;;;10.20;99.90;;;;;;5040948;28;20115;-88
2023/03/14 02:25:05;;;;;;;5.95;0.30;;;10.20;99.90;;;;;;5032432;28;20437;-89
2023/03/14 02:27:31;;;;;;;1.73;0.20;;;10.10;99.90;;;;;;5025019;28;20103;-85
2023/03/14 02:30:04;;;;;;;3.80;0.25;;;10.00;99.90;;;;;;5031641;28;20053;-86
2023/03/14 02:32:33;;;;;;;4.60;0.20;;;10.00;99.90;;;;;;5038005;28;20034;-85
2023/03/14 02:35:03;;;;;;;2.03;0.10;;;10.00;99.90;;;;;;5023406;28;20548;-87
2023/03/14 02:37:36;;;;;;;2.10;0.20;;;9.90;99.90;;;;;;5020258;28;20079;-89
2023/03/14 02:40:04;;;;;;;2.75;0.20;;;9.90;99.90;;;;;;5023838;28;20075;-86
2023/03/14 02:42:31;;;;;;;1.45;0.10;;;9.90;99.90;;;;;;5025549;28;20052;-86
2023/03/14 02:45:09;;;;;;;3.75;0.20;;;9.80;99.90;;;;;;5017415;28;20071;-86
2023/03/14 02:47:46;;;;;;;1.75;0.20;;;9.70;99.90;;;;;;5027891;28;20057;-87
2023/03/14 02:50:18;;;;;;;1.90;0.20;;;9.60;99.90;;;;;;5014344;28;20030;-86
2023/03/14 02:52:44;;;;;;;3.35;0.30;;;9.60;99.90;;;;;;5024045;28;20440;-88
2023/03/14 02:55:09;;;;;;;2.88;0.20;;;9.50;99.90;;;;;;5025595;28;20074;-89
2023/03/14 02:57:38;;;;;;;6.57;0.20;;;9.50;99.90;;;;;;5024532;28;20030;-86
2023/03/14 03:00:05;;;;;;;2.45;0.25;;;9.50;99.90;;;;;;5011413;28;20036;-87
2023/03/14 03:02:34;;;;;;;4.88;0.22;;;9.50;99.90;;;;;;5010653;28;20030;-88
2023/03/14 03:04:59;;;;;;;1.83;0.20;;;9.50;99.90;;;;;;5024447;28;20036;-83
2023/03/14 03:07:25;;;;;;;4.13;0.60;;;9.40;99.90;;;;;;5027124;28;20034;-86
2023/03/14 03:09:53;;;;;;;1.95;0.20;;;9.30;99.90;;;;;;5008943;28;20021;-88
2023/03/14 03:12:19;;;;;;;4.05;0.30;;;9.30;99.90;;;;;;5030153;28;20781;-83
2023/03/14 03:14:44;;;;;;;5.05;0.50;;;9.30;99.90;;;;;;5025950;28;20377;-88
2023/03/14 03:17:10;;;;;;;3.95;0.20;;;9.30;99.90;;;;;;5035458;28;20041;-90
2023/03/14 03:19:38;;;;;;;2.83;0.20;;;9.30;99.90;;;;;;5011608;28;20104;-83
2023/03/14 03:22:03;;;;;;;2.30;0.20;;;9.40;99.90;;;;;;5010959;28;20038;-84
2023/03/14 03:24:29;;;;;;;2.25;0.20;;;9.30;99.90;;;;;;5021903;28;20509;-84
2023/03/14 03:26:55;;;;;;;2.28;0.30;;;9.30;99.90;;;;;;5023267;28;20045;-89
2023/03/14 03:29:20;;;;;;;5.47;0.60;;;9.30;99.90;;;;;;5025216;28;20029;-85
2023/03/14 03:31:46;;;;;;;2.92;0.20;;;9.30;99.90;;;;;;5033772;28;20033;-84
2023/03/14 03:34:14;;;;;;;2.05;0.65;;;9.30;99.90;;;;;;5026182;28;20022;-86
2023/03/14 03:36:41;;;;;;;3.10;0.20;;;9.30;99.90;;;;;;5038788;28;20024;-87
2023/03/14 03:39:07;;;;;;;3.22;0.30;;;9.30;99.90;;;;;;5041214;28;20451;-84
2023/03/14 03:41:33;;;;;;;2.35;0.20;;;9.30;99.90;;;;;;5018398;28;20136;-83
2023/03/14 03:43:59;;;;;;;2.60;0.30;;;9.30;99.90;;;;;;5036108;28;20028;-87
2023/03/14 03:46:25;;;;;;;2.90;0.25;;;9.40;99.90;;;;;;5028757;28;20398;-88
2023/03/14 03:48:55;;;;;;;4.50;0.30;;;9.40;99.90;;;;;;5026626;28;20025;-84
2023/03/14 03:51:21;;;;;;;4.40;0.30;;;9.50;99.90;;;;;;5035296;28;20033;-86
2023/03/14 03:53:47;;;;;;;2.70;0.40;;;9.50;99.90;;;;;;5028538;28;20032;-87
2023/03/14 03:56:17;;;;;;;3.70;0.50;;;9.50;99.90;;;;;;5023707;28;20025;-87
2023/03/14 03:58:44;;;;;;;3.00;0.20;;;9.40;99.90;;;;;;5010729;28;20021;-87
2023/03/14 04:01:10;;;;;;;3.67;0.20;;;9.40;99.90;;;;;;5039313;28;20140;-85
2023/03/14 04:03:40;;;;;;;5.40;0.20;;;9.40;99.90;;;;;;5017457;28;20040;-88
2023/03/14 04:06:09;;;;;;;3.45;0.52;;;9.40;99.90;;;;;;5016027;28;20037;-84
2023/03/14 04:08:38;;;;;;;3.38;0.40;;;9.40;99.90;;;;;;5034586;28;20163;-87
2023/03/14 04:11:05;;;;;;;3.80;0.47;;;9.50;99.90;;;;;;5030656;28;20029;-86
2023/03/14 04:13:48;;;;;;;4.88;0.30;;;9.50;99.90;;;;;;5035172;28;20082;-88
2023/03/14 04:16:20;;;;;;;4.15;0.50;;;9.50;99.90;;;;;;5017753;28;20033;-87
2023/03/14 04:18:47;;;;;;;2.92;0.20;;;9.50;99.90;;;;;;5029542;28;20030;-83
2023/03/14 04:21:13;;;;;;;3.08;0.30;;;9.50;99.90;;;;;;5027768;28;20041;-86
2023/03/14 04:23:44;;;;;;;1.92;0.22;;;9.50;99.90;;;;;;5031349;28;20026;-85
2023/03/14 04:26:10;;;;;;;1.52;0.13;;;9.50;99.90;;;;;;5018120;28;20074;-84
2023/03/14 04:28:36;;;;;;;1.73;0.20;;;9.50;99.90;;;;;;5033515;28;20071;-83
2023/03/14 04:31:10;;;;;;;5.35;0.38;;;9.50;99.90;;;;;;5009943;28;20030;-86
2023/03/14 04:33:37;;;;;;;3.60;0.20;;;9.50;99.90;;;;;;5016559;28;20477;-84
2023/03/14 04:36:05;;;;;;;3.72;0.30;;;9.50;99.90;;;;;;5027034;28;20087;-86
2023/03/14 04:38:32;;;;;;;4.53;0.30;;;9.50;99.90;;;;;;5011510;28;20061;-86
2023/03/14 04:40:59;;;;;;;3.55;0.30;;;9.50;99.90;;;;;;5016877;28;20036;-87
2023/03/14 04:43:29;;;;;;;3.75;0.63;;;9.50;99.90;;;;;;5015487;28;20025;-84
2023/03/14 04:46:01;;;;;;;1.67;0.20;;;9.50;99.90;;;;;;5033482;28;20498;-86
2023/03/14 04:48:27;;;;;;;3.15;0.30;;;9.50;99.90;;;;;;5029525;28;20033;-87
2023/03/14 04:50:53;;;;;;;2.80;0.25;;;9.50;99.90;;;;;;5019756;28;20086;-86
2023/03/14 04:53:19;;;;;;;5.95;0.38;;;9.40;99.90;;;;;;5036501;28;20120;-87
2023/03/14 04:55:52;;;;;;;4.13;0.20;;;9.50;99.90;;;;;;5029678;28;20025;-87
2023/03/14 04:58:19;;;;;;;3.97;0.20;;;9.40;99.90;;;;;;5022317;28;20406;-84
2023/03/14 05:00:47;;;;;;;2.92;0.28;;;9.40;99.90;;;;;;5017163;28;20029;-87
2023/03/14 05:03:31;;;;;;;1.73;0.32;;;9.40;99.90;;;;;;5034355;28;20067;-84
2023/03/14 05:06:08;;;;;;;3.47;0.20;;;9.40;99.90;;;;;;5026095;28;20076;-86
2023/03/14 05:08:41;;;;;;;2.90;0.43;;;9.40;99.90;;;;;;5019926;28;20168;-86
2023/03/14 05:11:29;;;;;;;4.15;0.30;;;9.40;99.90;;;;;;4973142;28;20034;-83
2023/03/14 05:14:04;;;;;;;5.03;0.38;;;9.50;99.90;;;;;;4987667;28;20038;-85
2023/03/14 05:16:43;;;;;;;3.90;0.20;;;9.50;99.90;;;;;;4970685;28;20173;-86
2023/03/14 05:19:41;;;;;;;1.85;0.30;;;9.40;99.90;;;;;;4983357;28;20034;-87
2023/03/14 05:22:27;;;;;;;1.75;0.20;;;9.40;99.90;;;;;;4981900;28;20085;-84
2023/03/14 05:25:18;;;;;;;3.85;0.30;;;9.30;99.90;;;;;;4971052;28;20030;-86
2023/03/14 05:28:22;;;;;;;3.60;0.40;;;9.20;99.90;;;;;;4948488;29;20051;-85
2023/03/14 05:31:09;;;;;;;4.22;0.20;;;9.10;99.90;;;;;;4934045;29;20606;-84
2023/03/14 05:33:53;;;;;;;3.97;0.20;;;9.00;99.90;;;;;;4946993;29;20134;-87
2023/03/14 05:36:38;;;;;;;2.22;0.20;;;8.90;99.90;;;;;;4932073;29;20042;-87
2023/03/14 05:39:22;;;;;;;3.33;0.20;;;9.00;99.90;;;;;;4933051;29;20058;-84
2023/03/14 05:42:09;;;;;;;1.95;0.20;;;8.90;99.90;;;;;;4947680;29;20134;-85
2023/03/14 05:44:46;;;;;;;3.95;0.20;;;8.90;99.90;;;;;;4944141;29;20055;-84
2023/03/14 05:47:29;;;;;;;3.55;0.30;;;8.90;99.90;;;;;;4940229;28;20035;-83
2023/03/14 05:50:09;;;;;;;3.42;0.85;;;9.00;99.90;;;;;;4965122;28;20427;-86
2023/03/14 05:52:53;;;;;;;2.08;0.20;;;8.90;99.90;;;;;;4998951;28;20029;-85
2023/03/14 05:55:39;;;;;;;2.17;0.20;;;8.90;99.90;;;;;;4997877;28;20044;-86
2023/03/14 05:58:23;;;;;;;1.80;0.13;;;8.90;99.90;;;;;;4976504;28;20044;-84
2023/03/14 06:01:08;;;;;;;2.80;0.25;;;8.90;99.90;;;;;;5037945;28;20414;-84
2023/03/14 06:03:47;;;;;;;3.35;0.20;;;8.90;99.90;;;;;;5030075;28;20432;-88
2023/03/14 06:06:13;;;;;;;1.55;0.10;;;8.90;99.90;;;;;;5030877;28;20060;-86
2023/03/14 06:08:39;;;;;;;3.03;0.20;;;9.00;99.90;;;;;;5031496;28;20103;-86
2023/03/14 06:11:05;;;;;;;1.13;0.30;;;9.00;99.90;;;;;;5037176;28;20028;-84
2023/03/14 06:13:31;;;;;;;1.50;0.25;;;9.00;99.90;;;;;;5046325;28;20189;-87
2023/03/14 06:15:56;;;;;;;2.72;0.30;;;9.00;99.90;;;;;;5021225;28;20037;-88
2023/03/14 06:18:22;;;;;;;2.53;0.38;;;9.10;99.90;;;;;;5028261;28;20055;-87
2023/03/14 06:20:48;;;;;;;2.97;1.02;;;9.20;99.90;;;;;;5036144;28;20226;-85
2023/03/14 06:23:22;;;;;;;1.20;0.40;;;9.20;99.90;;;;;;5010847;28;20091;-83
2023/03/14 06:25:48;;;;;;;1.38;0.45;;;9.30;99.90;;;;;;5011860;28;20033;-81
2023/03/14 06:28:14;;;;;;;1.10;0.50;;;9.30;99.90;;;;;;5003830;28;20046;-84
2023/03/14 06:30:40;;;;;;;2.05;0.60;;;9.40;99.90;;;;;;4996344;28;20033;-82
2023/03/14 06:33:09;;;;;;;1.23;0.50;;;9.30;99.90;;;;;;5038141;28;20040;-82
2023/03/14 06:35:34;;;;;;;3.63;0.50;;;9.30;99.90;;;;;;5039358;28;20037;-83
2023/03/14 06:38:00;;;;;;;2.15;0.55;;;9.30;99.90;;;;;;5006295;28;20037;-85
2023/03/14 06:40:26;;;;;;;2.35;0.50;;;9.30;99.90;;;;;;5024397;28;20081;-84
2023/03/14 06:42:59;;;;;;;1.40;0.40;;;9.30;99.90;;;;;;5023933;28;20438;-83
2023/03/14 06:45:27;;;;;;;1.73;0.50;;;9.30;99.90;;;;;;5007345;28;20115;-85
2023/03/14 06:47:54;;;;;;;2.17;0.40;;;9.30;99.90;;;;;;5023102;28;20068;-83
2023/03/14 06:50:24;;;;;;;1.90;0.43;;;9.30;99.90;;;;;;5023234;28;20040;-84
2023/03/14 06:52:50;;;;;;;1.73;0.50;;;9.40;99.90;;;;;;5007101;28;20032;-85
2023/03/14 06:55:20;;;;;;;;;;;9.40;99.90;;;;;;5007371;28;20866;-83
2023/03/14 06:57:46;;;;;;;3.03;0.63;;;9.40;99.90;;;;;;5018417;28;20034;-82
2023/03/14 07:00:13;;;;;;;1.92;0.50;;;9.50;99.90;;;;;;5023352;28;20598;-82
2023/03/14 07:02:39;;;;;;;2.58;0.45;;;9.50;99.90;;;;;;5000099;28;20090;-84
2023/03/14 07:05:06;;;;;;;3.42;0.60;;;9.50;99.90;;;;;;5006993;28;20035;-83
2023/03/14 07:07:33;;;;;;;2.42;0.50;;;9.50;99.90;;;;;;5012858;28;20168;-81
2023/03/14 07:09:58;;;;;;;2.10;0.50;;;9.50;99.90;;;;;;5029614;28;20033;-82
2023/03/14 07:12:25;;;;;;;1.75;0.45;;;9.60;99.90;;;;;;5005599;28;20033;-83
2023/03/14 07:14:52;;;;;;;4.00;0.90;;;9.50;99.90;;;;;;5036577;28;20422;-83
2023/03/14 07:17:18;;;;;;;2.33;0.57;;;9.60;99.90;;;;;;5022167;28;20077;-83
2023/03/14 07:19:43;;;;;;;1.85;0.80;;;9.60;99.90;;;;;;5021720;28;20049;-84
2023/03/14 07:22:09;;;;;;;2.67;0.50;;;9.70;99.90;;;;;;5021742;28;20120;-83
2023/03/14 07:24:35;;;;;;;1.85;0.50;;;9.70;99.90;;;;;;5028085;28;20050;-83
2023/03/14 07:27:00;;;;;;;2.47;0.50;;;9.70;99.90;;;;;;5005695;28;20501;-83
2023/03/14 07:29:26;;;;;;;3.80;0.68;;;9.70;99.90;;;;;;5005758;28;20481;-84
2023/03/14 07:31:52;;;;;;;1.55;0.70;;;9.70;99.90;;;;;;5005191;28;20033;-82
2023/03/14 07:34:19;;;;;;;4.13;0.52;;;9.70;99.90;;;;;;5022120;28;20036;-82
2023/03/14 07:36:45;;;;;;;3.67;0.70;;;9.70;99.90;;;;;;5004975;28;20051;-83
2023/03/14 07:39:11;;;;;;;1.90;0.60;;;9.80;99.90;;;;;;5004753;28;20148;-83
2023/03/14 07:41:44;;;;;;;1.90;0.60;;;9.80;99.90;;;;;;5005532;28;20083;-83
2023/03/14 07:44:24;;;;;;;3.10;0.65;;;9.80;99.90;;;;;;5020578;28;20045;-83
2023/03/14 07:46:50;;;;;;;2.08;0.50;;;9.90;99.90;;;;;;5004610;28;20035;-83
2023/03/14 07:49:15;;;;;;;2.10;0.40;;;9.80;99.90;;;;;;5019136;28;20693;-82
2023/03/14 07:51:43;;;;;;;1.73;0.32;;;9.70;99.90;;;;;;5003247;28;20044;-82
2023/03/14 07:54:09;;;;;;;1.20;0.30;;;9.40;99.90;;;;;;5017859;28;20029;-83
2023/03/14 07:56:35;;;;;;;3.05;0.30;;;9.30;99.90;;;;;;5019189;28;20116;-81
2023/03/14 07:59:01;;;;;;;1.83;0.30;;;9.20;99.90;;;;;;5021144;28;21143;-80
2023/03/14 08:01:27;;;;;;;2.45;0.35;;;9.10;99.90;;;;;;5021060;28;20454;-79
2023/03/14 08:03:53;;;;;;;1.65;0.40;;;9.10;99.90;;;;;;5017855;28;20029;-80
2023/03/14 08:06:18;;;;;;;3.55;0.40;;;9.00;99.90;;;;;;5018866;28;20064;-82
2023/03/14 08:08:44;;;;;;;1.10;0.20;;;8.80;99.90;;;;;;5019389;28;20029;-81
2023/03/14 08:11:10;;;;;;;0.77;0.10;;;8.50;99.90;;;;;;5018766;28;20610;-81
2023/03/14 08:13:36;;;;;;;0.68;0.10;;;8.30;99.90;;;;;;5007221;28;20339;-82
2023/03/14 08:16:02;;;;;;;0.50;0.10;;;8.20;99.90;;;;;;5002837;28;20457;-82
2023/03/14 08:18:28;;;;;;;1.38;0.40;;;8.20;99.90;;;;;;5020034;28;20036;-81
2023/03/14 08:20:54;;;;;;;0.68;0.10;;;8.10;99.90;;;;;;5036453;28;20044;-80
2023/03/14 08:23:20;;;;;;;1.42;0.10;;;8.00;99.90;;;;;;4991628;28;20047;-83
2023/03/14 08:25:47;;;;;;;1.35;0.10;;;7.90;99.90;;;;;;4996986;28;20072;-82
2023/03/14 08:28:13;;;;;;;0.88;0.10;;;7.80;99.90;;;;;;5002839;28;20057;-84
2023/03/14 08:30:39;;;;;;;0.73;0.10;;;7.80;99.90;;;;;;5003682;28;20086;-82
2023/03/14 08:33:06;;;;;;;0.50;0.10;;;7.80;99.90;;;;;;5001916;28;20833;-84
2023/03/14 08:35:31;;;;;;;0.52;0.10;;;7.80;99.90;;;;;;5004106;28;20029;-82
2023/03/14 08:37:57;;;;;;;2.15;0.10;;;7.80;99.90;;;;;;5003553;28;20385;-83
2023/03/14 08:40:23;;;;;;;0.82;0.10;;;7.90;99.90;;;;;;5020425;28;20059;-83
2023/03/14 08:42:48;;;;;;;0.57;0.00;;;7.90;99.90;;;;;;5004804;28;20041;-82
2023/03/14 08:45:16;;;;;;;0.82;0.10;;;7.90;99.90;;;;;;5002487;28;20484;-84
2023/03/14 08:47:43;;;;;;;0.70;0.03;;;8.00;99.90;;;;;;5003519;28;20041;-85
2023/03/14 08:50:11;;;;;;;0.88;0.10;;;7.90;99.90;;;;;;5007293;28;20029;-84
2023/03/14 08:52:39;;;;;;;0.90;0.20;;;7.90;99.90;;;;;;5014940;28;20144;-82
2023/03/14 08:55:06;;;;;;;0.75;0.10;;;7.80;99.90;;;;;;5020517;28;20017;-83
2023/03/14 08:57:32;;;;;;;0.60;0.10;;;7.80;99.90;;;;;;5018674;28;20520;-84
2023/03/14 08:59:58;;;;;;;0.98;0.10;;;7.70;99.90;;;;;;5004347;28;20037;-82
2023/03/14 09:02:25;;;;;;;1.20;0.10;;;7.50;99.90;;;;;;5019012;28;20045;-82
2023/03/14 09:04:51;;;;;;;0.65;0.10;;;7.40;99.90;;;;;;5009240;28;20091;-83
2023/03/14 09:07:18;;;;;;;3.13;0.10;;;7.40;99.90;;;;;;5020823;28;20040;-85
2023/03/14 09:09:43;;;;;;;0.95;0.10;;;7.20;99.90;;;;;;5021373;28;20033;-82
2023/03/14 09:12:09;;;;;;;1.70;0.10;;;7.10;99.90;;;;;;5019922;28;21361;-82
2023/03/14 09:14:35;;;;;;;4.22;0.20;;;7.30;99.90;;;;;;5007827;28;20124;-83
2023/03/14 09:17:02;;;;;;;3.00;0.20;;;7.20;99.90;;;;;;5004325;28;20485;-83
2023/03/14 09:19:27;;;;;;;5.50;0.20;;;7.00;99.90;;;;;;5011011;28;20042;-85
2023/03/14 09:21:54;;;;;;;1.83;0.10;;;6.80;99.90;;;;;;5004703;28;20037;-84
2023/03/14 09:24:20;;;;;;;1.10;0.10;;;6.60;99.90;;;;;;5014848;28;20057;-83
2023/03/14 09:26:46;;;;;;;0.95;0.00;;;6.60;99.90;;;;;;5006739;28;20061;-85
2023/03/14 09:29:12;;;;;;;2.67;0.43;;;6.50;99.90;;;;;;5006507;28;20039;-84
2023/03/14 09:31:37;;;;;;;3.75;0.10;;;6.40;99.90;;;;;;5021385;28;20559;-86
2023/03/14 09:34:03;;;;;;;3.20;0.10;;;6.30;99.90;;;;;;5006161;28;20156;-83
2023/03/14 09:36:30;;;;;;;1.10;0.10;;;6.30;99.90;;;;;;5023119;28;20052;-85
2023/03/14 09:38:56;;;;;;;2.60;0.10;;;6.30;99.90;;;;;;5023118;28;20029;-84
2023/03/14 09:41:27;;;;;;;2.92;0.10;;;6.30;99.90;;;;;;5007338;28;20155;-87
2023/03/14 09:44:04;;;;;;;1.85;0.10;;;6.40;99.90;;;;;;5006251;28;20065;-86
2023/03/14 09:46:32;;;;;;;1.52;0.10;;;6.20;99.90;;;;;;5005480;28;20044;-84
2023/03/14 09:48:59;;;;;;;1.40;0.05;;;6.40;99.90;;;;;;5006348;28;20040;-85
2023/03/14 09:51:25;;;;;;;2.47;0.10;;;6.40;99.90;;;;;;5023581;28;20037;-87
2023/03/14 09:53:51;;;;;;;4.13;0.30;;;6.50;99.90;;;;;;5024854;28;20049;-84
2023/03/14 09:56:25;;;;;;;4.05;0.20;;;6.70;99.90;;;;;;5030965;28;20025;-86
2023/03/14 09:58:58;;;;;;;0.57;0.00;;;6.80;99.90;;;;;;5007241;28;20040;-84
2023/03/14 10:01:32;;;;;;;2.47;0.10;;;6.80;99.90;;;;;;5018674;28;20058;-87
2023/03/14 10:04:13;;;;;;;1.70;0.10;;;6.80;99.90;;;;;;5032037;28;20048;-85
2023/03/14 10:06:38;;;;;;;1.33;0.10;;;6.90;99.90;;;;;;5032310;28;20394;-83
2023/03/14 10:09:05;;;;;;;2.83;0.13;;;7.00;99.90;;;;;;5033122;28;20041;-84
2023/03/14 10:11:31;;;;;;;1.85;0.10;;;7.20;99.90;;;;;;5028040;28;20026;-82
2023/03/14 10:14:09;;;;;;;1.20;0.05;;;7.30;99.90;;;;;;5030035;28;20026;-85
2023/03/14 10:16:44;;;;;;;2.08;0.10;;;7.30;99.90;;;;;;5017045;28;20025;-85
2023/03/14 10:19:12;;;;;;;1.30;0.10;;;7.10;99.90;;;;;;5021337;28;20468;-86
2023/03/14 10:21:40;;;;;;;2.45;0.10;;;7.00;99.90;;;;;;5020014;28;20057;-85
2023/03/14 10:24:30;;;;;;;3.97;0.15;;;6.90;99.90;;;;;;5032096;28;20021;-84
2023/03/14 10:27:02;;;;;;;3.35;0.20;;;6.80;99.90;;;;;;5018018;28;20045;-87
2023/03/14 10:29:29;;;;;;;3.25;0.10;;;6.60;99.90;;;;;;5016205;28;20094;-86
2023/03/14 10:32:03;;;;;;;4.05;0.20;;;6.70;99.90;;;;;;5019855;28;20032;-86
2023/03/14 10:34:35;;;;;;;3.80;0.10;;;6.60;99.90;;;;;;5019383;28;20048;-85
2023/03/14 10:37:16;;;;;;;3.40;0.30;;;6.50;99.90;;;;;;5027824;28;20493;-84
2023/03/14 10:39:52;;;;;;;4.85;0.28;;;6.60;99.90;;;;;;5016222;28;20099;-84
2023/03/14 10:42:24;;;;;;;5.93;0.20;;;6.50;99.90;;;;;;5028994;28;20132;-85
2023/03/14 10:44:55;;;;;;;6.97;0.20;;;6.60;99.90;;;;;;5035185;28;20287;-87
2023/03/14 10:47:25;;;;;;;3.13;0.10;;;6.60;99.90;;;;;;5029758;28;20947;-83
2023/03/14 10:49:51;;;;;;;4.05;0.20;;;6.70;99.90;;;;;;5031900;28;20033;-84
2023/03/14 10:52:29;;;;;;;6.00;0.40;;;6.80;99.90;;;;;;5013003;28;20064;-83
2023/03/14 10:55:01;;;;;;;4.22;0.35;;;6.70;99.90;;;;;;5027900;28;20033;-84
2023/03/14 10:57:27;;;;;;;3.45;0.35;;;6.90;99.90;;;;;;5031274;28;20049;-84
2023/03/14 10:59:54;;;;;;;5.43;0.25;;;6.90;99.90;;;;;;5035902;28;20068;-83
2023/03/14 11:02:31;;;;;;;5.47;0.28;;;6.70;99.90;;;;;;5033103;28;20037;-86
2023/03/14 11:05:08;;;;;;;5.38;0.43;;;6.60;99.90;;;;;;5031618;28;20033;-84
2023/03/14 11:07:44;;;;;;;5.88;0.28;;;6.50;99.90;;;;;;5036345;28;20030;-83
2023/03/14 11:10:16;;;;;;;9.52;0.45;;;6.40;99.90;;;;;;5014237;28;20025;-82
2023/03/14 11:12:41;;;;;;;10.30;1.38;;;5.70;99.90;;;;;;5020641;28;20048;-81
2023/03/14 11:15:27;;;;;;;9.20;0.40;;;5.50;99.90;;;;;;5031253;28;20032;-84
2023/03/14 11:18:20;;;;;;;11.93;0.93;;;5.70;99.90;;;;;;5032195;28;20036;-85
2023/03/14 11:20:46;;;;;;;10.52;0.50;;;5.80;99.90;;;;;;5029211;28;20033;-83
2023/03/14 11:23:21;;;;;;;15.95;1.45;;;5.90;99.90;;;;;;5015993;28;21470;-83
2023/03/14 11:26:11;;;;;;;14.00;0.70;;;6.10;99.90;;;;;;5028734;28;20080;-85
2023/03/14 11:28:42;;;;;;;10.30;0.57;;;6.10;99.90;;;;;;5029535;28;20044;-85
2023/03/14 11:31:24;;;;;;;16.85;0.77;;;6.30;99.90;;;;;;5032640;28;20029;-87
2023/03/14 11:33:56;;;;;;;10.35;0.50;;;6.30;99.90;;;;;;5010557;28;20060;-86
2023/03/14 11:36:29;;;;;;;15.55;0.50;;;6.60;99.90;;;;;;5036234;28;20055;-83
2023/03/14 11:38:59;;;;;;;17.17;1.05;;;6.60;99.90;;;;;;5013425;28;20033;-83
2023/03/14 11:41:37;;;;;;;14.23;0.93;;;6.70;99.90;;;;;;5016048;28;20131;-84
2023/03/14 11:44:29;;;;;;;14.32;0.77;;;6.80;99.90;;;;;;5031286;28;20036;-84
2023/03/14 11:47:18;;;;;;;16.60;0.60;;;6.90;99.90;;;;;;5016156;28;20084;-85
2023/03/14 11:49:50;;;;;;;11.35;0.73;;;6.90;99.90;;;;;;5034416;28;20051;-85
2023/03/14 11:52:46;;;;;;;16.88;1.83;;;7.00;99.90;;;;;;5033191;28;20096;-84
2023/03/14 11:55:25;;;;;;;18.23;1.10;;;6.80;99.90;;;;;;5032499;28;20226;-85
2023/03/14 11:57:53;;;;;;;9.30;0.68;;;6.80;99.90;;;;;;5031820;28;20029;-84
2023/03/14 12:00:20;;;;;;;14.75;0.80;;;6.90;99.90;;;;;;5034267;28;20034;-85
2023/03/14 12:03:13;;;;;;;10.10;0.82;;;7.00;99.90;;;;;;5036373;28;20094;-86
2023/03/14 12:05:38;;;;;;;16.10;1.55;;;7.00;99.90;;;;;;5016999;28;20151;-84
2023/03/14 12:08:07;;;;;;;22.40;0.80;;;7.00;99.90;;;;;;5032098;28;20112;-85
2023/03/14 12:10:50;;;;;;;16.17;0.57;;;7.10;99.90;;;;;;5015168;28;20161;-85
2023/03/14 12:13:16;;;;;;;12.30;0.60;;;7.50;99.90;;;;;;5047055;28;20033;-84
2023/03/14 12:16:00;;;;;;;10.70;0.80;;;7.60;99.90;;;;;;5047756;28;20045;-85
2023/03/14 12:18:42;;;;;;;8.18;0.70;;;7.50;99.90;;;;;;5032635;28;20183;-83
2023/03/14 12:21:10;;;;;;;10.73;0.70;;;7.80;99.90;;;;;;5013413;28;20045;-82
2023/03/14 12:23:50;;;;;;;12.95;0.55;;;8.30;99.90;;;;;;5018069;28;20035;-86
2023/03/14 12:26:22;;;;;;;7.53;0.60;;;8.10;99.90;;;;;;5019582;28;20456;-83
2023/03/14 12:29:09;;;;;;;10.95;0.47;;;8.00;99.90;;;;;;5034966;28;20115;-85
2023/03/14 12:31:43;;;;;;;6.88;0.40;;;7.90;99.90;;;;;;5044893;28;20033;-82
2023/03/14 12:34:11;;;;;;;8.35;0.40;;;7.80;99.90;;;;;;5030951;28;20510;-84
2023/03/14 12:36:49;;;;;;;5.20;0.40;;;8.10;99.90;;;;;;5031326;28;20154;-84
2023/03/14 12:39:37;;;;;;;10.43;0.60;;;7.90;99.90;;;;;;5016899;28;20033;-84
2023/03/14 12:42:10;;;;;;;11.07;0.70;;;8.10;99.90;;;;;;5009672;28;20378;-84
2023/03/14 12:44:50;;;;;;;11.57;0.43;;;8.00;99.90;;;;;;5026665;28;20060;-84
2023/03/14 12:47:19;;;;;;;8.07;0.32;;;8.10;99.90;;;;;;5009912;28;21154;-86
2023/03/14 12:49:57;;;;;;;9.32;0.30;;;7.60;99.90;;;;;;5009634;28;20507;-83
2023/03/14 12:52:40;;;;;;;4.20;0.32;;;7.60;99.90;;;;;;5032137;28;20044;-82
2023/03/14 12:55:06;;;;;;;5.35;0.40;;;7.50;99.90;;;;;;5027656;28;20041;-83
2023/03/14 12:58:00;;;;;;;6.28;0.30;;;7.70;99.90;;;;;;5014161;28;20033;-84
2023/03/14 13:00:34;;;;;;;10.18;0.35;;;7.90;99.90;;;;;;5032728;28;20500;-86
2023/03/14 13:03:22;;;;;;;6.93;0.30;;;8.00;99.90;;;;;;5023244;28;20048;-85
2023/03/14 13:06:04;;;;;;;8.15;0.88;;;8.00;99.90;;;;;;5039048;28;20021;-85
2023/03/14 13:08:39;;;;;;;7.57;0.38;;;7.90;99.90;;;;;;5035760;28;20331;-84
2023/03/14 13:11:18;;;;;;;10.40;0.70;;;8.10;99.90;;;;;;5031188;28;20080;-84
2023/03/14 13:13:58;;;;;;;7.82;0.60;;;8.00;99.90;;;;;;5031831;28;20456;-85